Time;durP1;ratioP1;P1;durP2;ratioP2;P2;SDS_P1;SDS_P2;PMS_P1;PMS_P2;Temp;Humidity;BMP_temperature;BMP_pressure;BME280_temperature;BME280_humidity;BME280_pressure;Samples;Min_cycle;Max_cycle;Signal;HPM_P1;HPM_P2
2023/05/19 00:00:55;;;;;;;6.93;3.90;;;;;;;12.80;65.99;154647.16;4987615;28;20998;-77
2023/05/19 00:03:22;;;;;;;7.53;4.23;;;;;;;12.81;66.05;154649.75;5008390;28;20884;-77
2023/05/19 00:05:53;;;;;;;5.80;4.00;;;;;;;12.78;66.38;154641.97;5009548;28;20898;-77
2023/05/19 00:08:19;;;;;;;5.20;3.50;;;;;;;12.61;67.06;154597.84;5008751;28;20460;-76
2023/05/19 00:10:47;;;;;;;4.97;4.13;;;;;;;12.56;66.71;154586.19;4994369;28;20902;-77
2023/05/19 00:13:13;;;;;;;4.80;3.60;;;;;;;12.50;66.84;154569.31;4993003;28;20453;-77
2023/05/19 00:15:41;;;;;;;5.77;4.13;;;;;;;12.42;67.99;154548.56;5011996;28;21141;-77
2023/05/19 00:18:08;;;;;;;4.80;3.73;;;;;;;12.28;69.52;154512.31;5009626;28;20459;-77
2023/05/19 00:20:36;;;;;;;5.77;4.07;;;;;;;12.25;70.29;154504.50;5009940;28;20456;-77
2023/05/19 00:23:04;;;;;;;9.60;3.90;;;;;;;12.29;68.29;154516.16;5010812;28;20487;-76
2023/05/19 00:25:31;;;;;;;5.80;3.70;;;;;;;12.28;69.22;154513.59;4978339;28;20464;-76
2023/05/19 00:27:58;;;;;;;5.80;4.07;;;;;;;12.25;69.89;154504.50;5010245;28;20465;-76
2023/05/19 00:30:26;;;;;;;6.47;3.50;;;;;;;12.18;69.00;154488.94;5009338;28;20458;-76
2023/05/19 00:32:52;;;;;;;4.60;4.13;;;;;;;12.15;68.91;154481.16;5011214;28;20896;-76
2023/05/19 00:35:19;;;;;;;5.00;3.90;;;;;;;12.16;69.33;154482.47;4975740;28;20457;-76
2023/05/19 00:37:46;;;;;;;5.70;3.87;;;;;;;12.20;68.61;154492.84;4994170;28;20475;-76
2023/05/19 00:40:14;;;;;;;8.17;3.73;;;;;;;12.30;68.12;154517.47;4976870;28;20464;-76
2023/05/19 00:42:41;;;;;;;4.10;3.20;;;;;;;12.30;67.82;154518.78;5012227;28;20877;-77
2023/05/19 00:45:08;;;;;;;6.40;3.97;;;;;;;12.26;67.72;154507.13;4992216;28;20464;-76
2023/05/19 00:47:35;;;;;;;4.80;3.40;;;;;;;12.23;67.61;154501.91;4975484;28;20440;-77
2023/05/19 00:50:01;;;;;;;5.90;3.50;;;;;;;12.23;67.54;154501.91;5006052;28;20480;-76
2023/05/19 00:52:28;;;;;;;5.70;3.47;;;;;;;12.19;67.67;154491.56;5011229;28;20505;-76
2023/05/19 00:54:55;;;;;;;5.33;3.93;;;;;;;12.14;68.22;154477.28;5009340;28;20464;-76
2023/05/19 00:57:24;;;;;;;3.80;3.40;;;;;;;12.08;69.26;154461.72;4997095;28;20468;-76
2023/05/19 00:59:51;;;;;;;9.20;4.77;;;;;;;12.09;69.48;154465.63;4999069;28;20449;-76
2023/05/19 01:02:18;;;;;;;4.50;3.97;;;;;;;12.02;69.24;154447.44;4988541;28;20457;-76
2023/05/19 01:04:45;;;;;;;5.80;4.00;;;;;;;11.98;69.71;154437.09;5011672;28;20954;-76
2023/05/19 01:07:12;;;;;;;5.27;3.37;;;;;;;11.97;69.41;154434.50;4977420;28;20638;-76
2023/05/19 01:09:39;;;;;;;4.00;3.47;;;;;;;11.99;69.61;154439.66;4976033;28;20459;-76
2023/05/19 01:12:08;;;;;;;8.20;3.63;;;;;;;11.97;69.98;154434.50;5006747;28;20500;-76
2023/05/19 01:14:36;;;;;;;3.60;3.30;;;;;;;12.06;70.33;154457.84;5011212;28;20458;-76
2023/05/19 01:17:08;;;;;;;4.33;3.63;;;;;;;11.98;70.58;154437.09;5005498;28;20479;-76
2023/05/19 01:19:55;;;;;;;7.13;4.50;;;;;;;11.93;70.42;154424.16;4975278;28;20459;-76
2023/05/19 01:22:42;;;;;;;6.67;4.13;;;;;;;11.93;70.88;154422.84;4990280;28;20474;-77
2023/05/19 01:25:30;;;;;;;6.77;4.00;;;;;;;11.94;71.08;154426.72;5005395;28;20459;-76
2023/05/19 01:28:39;;;;;;;15.70;6.70;;;;;;;11.97;71.29;154433.19;4993720;28;20451;-76
2023/05/19 01:31:08;;;;;;;4.47;4.07;;;;;;;12.03;70.77;154448.75;4967163;28;20479;-76
2023/05/19 01:33:35;;;;;;;5.60;4.10;;;;;;;12.06;70.48;154457.84;4975956;28;20556;-76
2023/05/19 01:36:03;;;;;;;5.80;3.70;;;;;;;11.99;70.85;154438.41;4991866;28;20452;-77
2023/05/19 01:38:30;;;;;;;4.67;4.07;;;;;;;11.95;71.40;154429.31;5008431;28;20555;-76
2023/05/19 01:40:57;;;;;;;5.73;3.40;;;;;;;11.94;71.46;154426.72;4992817;28;20444;-76
2023/05/19 01:43:25;;;;;;;3.67;3.37;;;;;;;12.04;70.90;154452.69;4990830;28;20825;-76
2023/05/19 01:45:52;;;;;;;6.93;3.70;;;;;;;11.91;71.73;154418.97;4976833;28;21070;-76
2023/05/19 01:48:20;;;;;;;4.40;3.73;;;;;;;11.93;71.76;154422.84;4993721;28;20471;-76
2023/05/19 01:50:47;;;;;;;4.90;3.97;;;;;;;11.96;72.08;154431.94;4976625;28;20455;-76
2023/05/19 01:53:15;;;;;;;5.97;4.27;;;;;;;11.96;71.88;154431.94;5009860;28;20465;-76
2023/05/19 01:55:44;;;;;;;5.97;4.00;;;;;;;11.96;72.19;154430.63;5008555;28;20570;-76
2023/05/19 01:58:17;;;;;;;5.50;3.80;;;;;;;11.97;72.56;154434.50;4992304;28;20468;-76
2023/05/19 02:00:52;;;;;;;3.70;3.30;;;;;;;11.96;72.50;154431.94;4990341;28;20916;-76
2023/05/19 02:03:29;;;;;;;4.40;3.53;;;;;;;11.97;72.49;154434.50;4998248;28;20480;-76
2023/05/19 02:06:01;;;;;;;4.90;3.80;;;;;;;11.95;72.96;154429.31;4994093;28;20538;-76
2023/05/19 02:08:34;;;;;;;7.47;5.03;;;;;;;11.92;73.74;154420.22;4992336;28;20486;-76
2023/05/19 02:11:03;;;;;;;5.80;4.47;;;;;;;11.96;73.30;154430.63;5008051;28;20583;-76
2023/05/19 02:13:33;;;;;;;4.80;3.80;;;;;;;11.90;73.13;154416.38;5010363;28;20821;-77
2023/05/19 02:16:03;;;;;;;5.63;4.13;;;;;;;11.88;73.45;154411.19;4974205;28;20819;-76
2023/05/19 02:18:32;;;;;;;6.37;4.20;;;;;;;11.85;73.34;154402.09;4975624;28;20450;-76
2023/05/19 02:20:59;;;;;;;4.67;3.50;;;;;;;11.78;74.00;154385.22;4991943;28;20788;-76
2023/05/19 02:23:26;;;;;;;4.87;3.57;;;;;;;11.80;73.75;154390.44;4990270;28;20482;-76
2023/05/19 02:25:53;;;;;;;5.83;4.20;;;;;;;11.87;73.15;154407.28;5003355;28;20451;-77
2023/05/19 02:28:19;;;;;;;7.50;3.93;;;;;;;11.81;73.88;154393.00;5007132;28;20459;-76
2023/05/19 02:30:46;;;;;;;9.83;3.87;;;;;;;11.78;74.23;154385.22;5008176;28;20472;-76
2023/05/19 02:33:12;;;;;;;5.40;3.97;;;;;;;11.81;73.96;154393.00;4990262;28;20488;-76
2023/05/19 02:35:40;;;;;;;5.00;4.10;;;;;;;11.81;74.23;154393.00;5015168;28;20446;-76
2023/05/19 02:38:07;;;;;;;5.23;3.70;;;;;;;11.81;74.14;154391.75;5006061;28;20521;-76
2023/05/19 02:40:33;;;;;;;5.83;3.83;;;;;;;11.82;74.43;154395.63;5008459;28;20451;-76
2023/05/19 02:43:00;;;;;;;5.33;3.90;;;;;;;11.80;74.04;154389.16;4989802;28;20462;-76
2023/05/19 02:45:28;;;;;;;5.90;3.90;;;;;;;11.74;74.44;154373.59;5008662;28;20467;-76
2023/05/19 02:47:55;;;;;;;5.30;3.73;;;;;;;11.71;75.26;154367.09;5008330;28;20454;-76
2023/05/19 02:50:22;;;;;;;4.93;3.63;;;;;;;11.69;75.22;154361.94;4990158;28;20995;-76
2023/05/19 02:52:51;;;;;;;5.67;3.90;;;;;;;11.66;75.33;154354.09;5007803;28;20486;-76
2023/05/19 02:55:18;;;;;;;4.20;3.67;;;;;;;11.69;75.00;154361.94;4971784;28;20453;-76
2023/05/19 02:57:44;;;;;;;4.80;4.27;;;;;;;11.64;75.97;154348.94;5007537;28;20471;-76
2023/05/19 03:00:12;;;;;;;4.47;3.70;;;;;;;11.70;75.85;154364.53;4990352;28;20462;-76
2023/05/19 03:02:40;;;;;;;4.93;3.77;;;;;;;11.69;76.11;154360.63;4992072;28;20447;-76
2023/05/19 03:05:09;;;;;;;3.60;2.93;;;;;;;11.60;75.98;154338.53;4999096;28;20481;-76
2023/05/19 03:07:35;;;;;;;4.73;3.97;;;;;;;11.49;76.09;154310.06;4991875;28;20462;-76
2023/05/19 03:10:05;;;;;;;5.20;3.60;;;;;;;11.38;76.99;154281.56;4991010;28;20455;-76
2023/05/19 03:12:32;;;;;;;4.13;3.67;;;;;;;11.43;76.69;154295.81;5008338;28;20493;-76
2023/05/19 03:14:59;;;;;;;6.10;4.10;;;;;;;11.31;76.64;154264.69;4988853;28;20443;-76
2023/05/19 03:17:26;;;;;;;3.80;3.40;;;;;;;11.25;77.46;154247.88;5006492;28;20538;-76
2023/05/19 03:19:52;;;;;;;5.13;4.17;;;;;;;11.24;76.85;154245.25;4991018;28;20544;-76
2023/05/19 03:22:19;;;;;;;6.40;3.60;;;;;;;11.29;76.60;154258.22;4991628;28;20470;-76
2023/05/19 03:24:46;;;;;;;3.97;3.27;;;;;;;11.22;76.40;154241.41;5007521;28;20571;-76
2023/05/19 03:27:15;;;;;;;5.50;3.77;;;;;;;11.21;76.72;154237.47;5008496;28;20462;-76
2023/05/19 03:29:41;;;;;;;4.07;3.37;;;;;;;11.17;77.09;154228.44;5007852;28;20446;-76
2023/05/19 03:32:08;;;;;;;5.00;3.43;;;;;;;11.09;77.69;154206.41;4991402;28;20817;-76
2023/05/19 03:34:36;;;;;;;10.07;4.63;;;;;;;11.12;77.30;154215.44;4989986;28;20457;-76
2023/05/19 03:37:02;;;;;;;3.60;3.30;;;;;;;11.06;77.57;154198.63;4978045;28;20462;-76
2023/05/19 03:39:32;;;;;;;6.10;4.33;;;;;;;10.96;78.13;154175.31;4990517;28;21185;-76
2023/05/19 03:41:58;;;;;;;5.43;3.97;;;;;;;10.96;77.86;154174.06;5008995;28;20516;-76
2023/05/19 03:44:27;;;;;;;5.47;3.97;;;;;;;10.90;77.70;154159.78;4991150;28;21086;-76
2023/05/19 03:46:53;;;;;;;5.00;3.80;;;;;;;10.89;78.59;154157.19;4991685;28;20557;-76
2023/05/19 03:49:56;;;;;;;6.67;4.07;;;;;;;10.86;79.11;154149.41;4993608;28;20463;-76
2023/05/19 03:52:47;;;;;;;4.50;3.50;;;;;;;10.87;78.63;154152.03;5002579;28;21037;-76
2023/05/19 03:55:28;;;;;;;5.47;3.93;;;;;;;10.82;79.42;154137.78;4987042;28;20818;-76
2023/05/19 03:57:55;;;;;;;5.80;4.70;;;;;;;10.80;79.73;154133.84;5004030;28;20842;-76
2023/05/19 04:00:24;;;;;;;6.33;4.10;;;;;;;10.88;80.34;154154.56;4992926;28;20649;-76
2023/05/19 04:02:51;;;;;;;6.73;4.53;;;;;;;11.01;79.95;154188.25;4969227;28;20454;-76
2023/05/19 04:05:17;;;;;;;6.03;4.40;;;;;;;10.91;80.47;154161.06;5011136;28;20476;-77
2023/05/19 04:07:45;;;;;;;7.03;4.63;;;;;;;10.87;80.70;154152.03;5010474;28;20446;-76
2023/05/19 04:10:12;;;;;;;6.47;5.37;;;;;;;10.82;81.53;154139.06;4991407;28;20537;-76
2023/05/19 04:12:39;;;;;;;9.03;4.43;;;;;;;10.79;81.43;154130.00;5011019;28;20508;-76
2023/05/19 04:15:06;;;;;;;5.70;4.50;;;;;;;10.76;81.83;154123.53;4985755;28;20453;-76
2023/05/19 04:17:34;;;;;;;6.00;4.07;;;;;;;10.80;81.38;154133.84;4977947;28;20516;-76
2023/05/19 04:20:01;;;;;;;6.23;3.97;;;;;;;10.77;81.66;154126.13;5008769;28;20459;-77
2023/05/19 04:22:28;;;;;;;5.40;4.43;;;;;;;10.72;82.44;154113.13;5007262;28;20473;-77
2023/05/19 04:24:55;;;;;;;4.73;3.87;;;;;;;10.73;82.38;154115.75;4994614;28;20963;-76
2023/05/19 04:27:21;;;;;;;7.40;4.33;;;;;;;10.74;82.31;154118.34;5009211;28;20467;-77
2023/05/19 04:29:48;;;;;;;6.43;4.30;;;;;;;10.75;81.93;154119.66;5005457;28;20504;-77
2023/05/19 04:32:17;;;;;;;4.57;4.10;;;;;;;10.77;82.74;154126.13;5006277;28;20537;-77
2023/05/19 04:34:45;;;;;;;4.63;4.10;;;;;;;10.77;82.49;154124.81;5024532;28;20503;-77
2023/05/19 04:37:16;;;;;;;5.37;4.47;;;;;;;10.76;82.40;154123.53;5022639;28;20457;-77
2023/05/19 04:39:44;;;;;;;6.37;5.10;;;;;;;10.82;81.46;154139.06;4987392;28;20472;-77
2023/05/19 04:42:12;;;;;;;5.67;4.37;;;;;;;10.78;82.53;154128.69;5006282;28;20492;-77
2023/05/19 04:44:39;;;;;;;5.73;4.80;;;;;;;10.80;81.62;154133.84;4984708;28;20445;-77
2023/05/19 04:47:07;;;;;;;6.57;4.50;;;;;;;10.83;81.24;154141.63;5018155;28;20547;-77
2023/05/19 04:49:37;;;;;;;4.87;4.00;;;;;;;10.85;80.73;154146.84;5026443;28;20459;-76
2023/05/19 04:52:09;;;;;;;5.00;3.80;;;;;;;10.81;80.98;154135.16;5022765;28;20489;-77
2023/05/19 04:54:36;;;;;;;5.07;4.10;;;;;;;10.83;81.23;154140.31;4982090;28;20471;-77
2023/05/19 04:57:03;;;;;;;8.50;5.50;;;;;;;10.83;80.70;154141.63;5019335;28;20474;-76
2023/05/19 04:59:32;;;;;;;5.10;4.20;;;;;;;10.82;80.80;154139.06;4986579;28;20560;-77
2023/05/19 05:01:59;;;;;;;6.63;4.80;;;;;;;10.79;80.70;154130.00;5008431;28;20456;-76
2023/05/19 05:04:29;;;;;;;5.50;5.00;;;;;;;10.75;80.71;154120.91;4988751;28;20480;-77
2023/05/19 05:06:55;;;;;;;6.10;5.43;;;;;;;10.68;81.56;154101.50;4991439;28;20488;-76
2023/05/19 05:09:25;;;;;;;5.50;4.90;;;;;;;10.70;81.20;154107.97;5000400;28;20454;-77
2023/05/19 05:11:55;;;;;;;5.77;5.10;;;;;;;10.77;81.29;154126.13;5001195;28;20622;-76
2023/05/19 05:14:22;;;;;;;4.90;4.37;;;;;;;10.80;81.15;154133.84;4985343;28;20441;-77
2023/05/19 05:16:50;;;;;;;9.27;4.90;;;;;;;10.92;80.87;154164.97;4978160;28;20464;-77
2023/05/19 05:19:22;;;;;;;8.80;6.13;;;;;;;10.92;80.85;154164.97;4994921;28;20462;-76
2023/05/19 05:21:49;;;;;;;9.33;5.33;;;;;;;10.90;80.85;154158.50;5001180;28;21177;-77
2023/05/19 05:24:17;;;;;;;7.07;4.83;;;;;;;10.87;81.58;154152.03;4985806;28;20728;-77
2023/05/19 05:26:50;;;;;;;5.93;5.07;;;;;;;10.88;81.37;154154.56;5017141;28;20465;-76
2023/05/19 05:29:17;;;;;;;4.80;4.30;;;;;;;10.95;81.77;154171.44;5024265;28;20444;-77
2023/05/19 05:31:44;;;;;;;6.87;5.03;;;;;;;11.08;81.54;154203.81;4998829;28;20936;-77
2023/05/19 05:34:11;;;;;;;4.20;3.80;;;;;;;11.31;81.05;154263.38;4986354;28;20992;-77
2023/05/19 05:36:37;;;;;;;5.33;4.40;;;;;;;11.53;80.33;154320.41;4998059;28;20524;-76
2023/05/19 05:39:04;;;;;;;5.43;4.90;;;;;;;11.68;78.65;154357.97;4997955;28;20462;-77
2023/05/19 05:41:34;;;;;;;7.90;4.40;;;;;;;11.79;78.18;154387.84;4988231;28;20445;-77
2023/05/19 05:44:04;;;;;;;7.77;4.40;;;;;;;11.81;77.21;154393.00;5017823;28;20526;-77
2023/05/19 05:46:32;;;;;;;5.57;4.80;;;;;;;11.77;77.57;154382.66;5004472;28;20456;-77
2023/05/19 05:48:59;;;;;;;5.60;4.03;;;;;;;11.79;77.61;154386.53;4995364;28;20456;-77
2023/05/19 05:51:26;;;;;;;6.17;4.97;;;;;;;11.93;78.10;154424.16;4999161;28;20522;-77
2023/05/19 05:53:55;;;;;;;5.53;4.63;;;;;;;12.14;77.70;154478.59;4978828;28;20469;-77
2023/05/19 05:56:27;;;;;;;6.20;4.20;;;;;;;12.39;76.77;154540.84;4986584;28;20473;-77
2023/05/19 05:58:54;;;;;;;4.80;4.20;;;;;;;12.68;75.20;154616.03;4990135;28;20451;-77
2023/05/19 06:01:22;;;;;;;5.60;4.67;;;;;;;12.88;73.65;154667.91;4992664;28;20459;-77
2023/05/19 06:03:49;;;;;;;6.87;5.23;;;;;;;13.01;72.63;154701.63;5005790;28;21056;-77
2023/05/19 06:06:20;;;;;;;6.27;4.37;;;;;;;12.98;72.33;154693.84;5004822;28;20456;-77
2023/05/19 06:08:46;;;;;;;5.83;4.90;;;;;;;12.93;72.67;154680.88;4996718;28;21000;-77
2023/05/19 06:11:13;;;;;;;6.47;4.73;;;;;;;12.92;72.61;154677.00;5001133;28;20480;-77
2023/05/19 06:13:41;;;;;;;7.47;4.50;;;;;;;13.03;71.66;154706.81;5001172;28;20480;-77
2023/05/19 06:16:10;;;;;;;10.40;5.73;;;;;;;13.05;71.35;154710.72;5019392;28;20452;-77
2023/05/19 06:18:42;;;;;;;5.43;4.67;;;;;;;13.25;71.73;154763.97;4989096;28;20437;-77
2023/05/19 06:21:12;;;;;;;10.03;4.97;;;;;;;13.46;70.68;154815.84;5000310;28;20476;-77
2023/05/19 06:23:39;;;;;;;6.60;4.50;;;;;;;13.50;69.73;154827.56;4987183;28;20452;-77
2023/05/19 06:26:08;;;;;;;5.70;4.90;;;;;;;13.48;70.06;154821.03;4970120;28;20949;-77
2023/05/19 06:28:34;;;;;;;6.87;6.20;;;;;;;13.56;70.42;154843.09;5007506;28;20477;-77
2023/05/19 06:31:01;;;;;;;6.03;5.07;;;;;;;13.78;69.06;154900.22;4993624;28;20468;-77
2023/05/19 06:33:41;;;;;;;4.83;4.40;;;;;;;13.78;68.46;154898.91;4979236;28;20467;-77
2023/05/19 06:36:09;;;;;;;6.80;5.10;;;;;;;13.76;68.71;154895.06;4971866;28;20453;-77
2023/05/19 06:38:37;;;;;;;6.50;4.67;;;;;;;13.70;69.34;154878.16;5009513;28;20445;-77
2023/05/19 06:41:04;;;;;;;5.40;4.47;;;;;;;13.75;69.40;154891.13;4974050;28;20544;-77
2023/05/19 06:43:31;;;;;;;6.07;4.57;;;;;;;13.96;69.25;154946.94;4990711;28;20463;-77
2023/05/19 06:46:02;;;;;;;6.27;4.80;;;;;;;14.02;68.56;154961.25;4973541;28;20570;-77
2023/05/19 06:48:31;;;;;;;5.50;4.63;;;;;;;13.87;69.46;154922.31;5007601;28;20923;-77
2023/05/19 06:51:00;;;;;;;8.90;5.73;;;;;;;13.96;69.66;154945.66;4996201;28;20460;-77
2023/05/19 06:53:34;;;;;;;6.83;5.33;;;;;;;14.00;68.63;154956.06;4992898;28;20485;-77
2023/05/19 06:56:07;;;;;;;5.90;4.57;;;;;;;13.93;68.08;154937.84;4982141;28;20445;-79
2023/05/19 06:58:38;;;;;;;7.53;4.43;;;;;;;13.76;69.30;154895.06;4977736;28;20447;-76
2023/05/19 07:01:05;;;;;;;6.87;4.90;;;;;;;13.67;69.54;154870.34;4979551;28;20465;-76
2023/05/19 07:03:41;;;;;;;8.20;5.20;;;;;;;13.49;70.71;154823.66;4983620;28;20956;-76
2023/05/19 07:06:13;;;;;;;4.90;4.10;;;;;;;13.49;70.94;154824.94;4991358;28;20510;-77
2023/05/19 07:08:40;;;;;;;5.40;4.40;;;;;;;13.40;71.30;154801.56;5001813;28;20452;-76
2023/05/19 07:11:08;;;;;;;8.20;5.17;;;;;;;13.42;69.92;154808.06;4997407;28;20983;-77
2023/05/19 07:13:34;;;;;;;5.63;4.27;;;;;;;13.33;71.03;154783.44;4977997;28;20579;-77
2023/05/19 07:16:01;;;;;;;6.63;4.70;;;;;;;13.19;72.44;154748.38;5019741;28;20497;-77
2023/05/19 07:18:30;;;;;;;5.27;4.40;;;;;;;13.27;72.49;154769.13;5002468;28;20451;-77
2023/05/19 07:20:57;;;;;;;6.73;4.53;;;;;;;13.37;72.58;154793.78;4996268;28;20526;-76
2023/05/19 07:23:25;;;;;;;9.53;4.47;;;;;;;13.35;71.20;154789.91;5004194;28;20445;-76
2023/05/19 07:25:54;;;;;;;5.33;4.70;;;;;;;13.13;71.97;154732.78;4997447;28;20469;-76
2023/05/19 07:28:20;;;;;;;6.30;4.90;;;;;;;13.08;71.28;154718.56;5015067;28;20439;-76
2023/05/19 07:30:48;;;;;;;6.57;4.50;;;;;;;13.09;71.95;154722.44;5022051;28;21014;-76
2023/05/19 07:33:15;;;;;;;8.73;6.70;;;;;;;12.98;71.30;154693.84;5017042;28;20498;-76
2023/05/19 07:35:43;;;;;;;5.60;4.90;;;;;;;13.09;71.90;154721.13;5004165;28;20454;-76
2023/05/19 07:38:09;;;;;;;7.53;4.50;;;;;;;13.13;72.67;154731.53;5014744;28;20506;-76
2023/05/19 07:40:37;;;;;;;5.73;4.17;;;;;;;13.22;72.50;154754.88;5022203;28;20452;-77
2023/05/19 07:43:04;;;;;;;6.83;4.40;;;;;;;13.24;71.35;154761.34;5011897;28;20456;-78
2023/05/19 07:45:30;;;;;;;7.67;4.37;;;;;;;13.25;71.66;154762.66;4988231;28;20436;-77
2023/05/19 07:47:57;;;;;;;6.80;4.70;;;;;;;13.23;72.49;154757.47;5021045;28;20449;-77
2023/05/19 07:50:24;;;;;;;6.23;4.37;;;;;;;13.18;71.91;154744.50;4998226;28;20468;-77
2023/05/19 07:52:51;;;;;;;4.70;4.20;;;;;;;13.11;72.18;154726.31;5018297;28;20428;-77
2023/05/19 07:55:26;;;;;;;4.87;4.27;;;;;;;13.13;72.06;154732.78;4995154;28;20461;-77
2023/05/19 07:57:55;;;;;;;5.30;4.00;;;;;;;13.16;71.72;154740.59;5013603;28;20455;-77
2023/05/19 08:00:22;;;;;;;5.50;3.97;;;;;;;13.11;71.60;154727.63;5001488;28;20437;-77
2023/05/19 08:02:51;;;;;;;5.47;4.63;;;;;;;13.07;72.15;154715.97;5011886;28;20826;-77
2023/05/19 08:05:18;;;;;;;5.90;4.50;;;;;;;13.10;72.15;154725.06;4995406;28;20538;-77
2023/05/19 08:07:44;;;;;;;8.00;4.63;;;;;;;13.21;71.53;154752.31;4986283;28;20454;-78
2023/05/19 08:10:11;;;;;;;5.73;4.87;;;;;;;13.16;71.63;154740.59;5001699;28;20479;-77
2023/05/19 08:13:16;;;;;;;5.90;4.63;;;;;;;13.24;71.87;154761.34;4983829;28;20482;-78
2023/05/19 08:16:02;;;;;;;5.87;4.17;;;;;;;13.10;71.28;154725.06;4988670;28;20496;-77
2023/05/19 08:18:29;;;;;;;7.93;4.80;;;;;;;13.03;71.87;154706.81;5003072;28;20955;-78
2023/05/19 08:20:56;;;;;;;8.03;4.60;;;;;;;13.08;72.52;154719.81;4984515;28;20470;-78
2023/05/19 08:23:23;;;;;;;7.73;5.20;;;;;;;13.11;72.34;154727.63;5011861;28;20817;-78
2023/05/19 08:25:49;;;;;;;4.77;3.73;;;;;;;13.03;72.55;154705.50;4998545;28;20461;-78
2023/05/19 08:28:16;;;;;;;7.87;4.80;;;;;;;13.18;71.80;154745.81;5007040;28;20456;-78
2023/05/19 08:30:42;;;;;;;6.33;4.87;;;;;;;13.13;71.12;154732.78;4996068;28;20456;-78
2023/05/19 08:33:12;;;;;;;7.57;4.37;;;;;;;13.04;71.67;154709.44;5004531;28;20488;-78
2023/05/19 08:35:42;;;;;;;5.17;4.27;;;;;;;13.12;71.85;154730.22;5011944;28;20469;-78
2023/05/19 08:38:09;;;;;;;6.20;4.80;;;;;;;13.12;71.31;154730.22;5013708;28;20447;-78
2023/05/19 08:40:37;;;;;;;6.23;4.87;;;;;;;13.06;71.56;154714.59;5011181;28;20498;-78
2023/05/19 08:43:04;;;;;;;5.97;4.80;;;;;;;13.12;71.70;154728.94;5013478;28;20440;-78
2023/05/19 08:45:33;;;;;;;9.10;4.60;;;;;;;13.15;72.31;154736.72;5003023;28;20464;-78
2023/05/19 08:47:59;;;;;;;6.13;4.50;;;;;;;13.09;72.03;154722.44;5010535;28;20493;-79
2023/05/19 08:50:32;;;;;;;6.93;4.67;;;;;;;13.23;72.09;154758.78;5014624;28;21061;-78
2023/05/19 08:53:01;;;;;;;6.73;5.07;;;;;;;13.27;71.03;154769.13;5004415;28;20544;-78
2023/05/19 08:55:33;;;;;;;5.23;3.93;;;;;;;13.26;71.08;154766.53;5014048;28;20455;-78
2023/05/19 08:58:01;;;;;;;5.20;4.37;;;;;;;13.33;70.71;154784.72;5014566;28;20452;-78
2023/05/19 09:00:28;;;;;;;5.43;4.87;;;;;;;13.34;70.75;154787.28;5002746;28;20498;-78
2023/05/19 09:02:56;;;;;;;6.37;4.80;;;;;;;13.33;70.30;154784.72;4999286;28;20452;-78
2023/05/19 09:05:23;;;;;;;9.37;4.37;;;;;;;13.45;71.19;154813.28;5018249;28;20444;-78
2023/05/19 09:07:51;;;;;;;5.80;4.40;;;;;;;13.38;69.59;154796.38;4991492;28;20456;-78
2023/05/19 09:10:17;;;;;;;4.10;3.80;;;;;;;13.27;70.43;154767.84;4995794;28;20453;-78
2023/05/19 09:12:46;;;;;;;5.40;4.20;;;;;;;13.21;70.20;154753.56;5010588;28;20488;-78
2023/05/19 09:15:13;;;;;;;5.63;3.83;;;;;;;13.25;70.80;154762.66;5000291;28;20846;-78
2023/05/19 09:17:40;;;;;;;5.73;4.33;;;;;;;13.25;70.87;154762.66;4990432;28;20461;-78
2023/05/19 09:20:10;;;;;;;9.37;4.33;;;;;;;13.28;71.60;154770.44;4990989;28;20479;-78
2023/05/19 09:22:41;;;;;;;6.40;4.60;;;;;;;13.37;71.99;154795.09;5007923;28;20955;-78
2023/05/19 09:25:19;;;;;;;5.23;4.07;;;;;;;13.48;71.09;154822.34;5013435;28;20556;-78
2023/05/19 09:27:46;;;;;;;4.90;3.97;;;;;;;13.42;70.94;154808.06;4984613;28;20456;-78
2023/05/19 09:30:14;;;;;;;8.03;4.37;;;;;;;13.32;70.82;154782.13;5008902;28;20456;-78
2023/05/19 09:32:41;;;;;;;7.00;4.97;;;;;;;13.26;70.60;154766.53;5000327;28;20554;-78
2023/05/19 09:35:11;;;;;;;4.97;3.90;;;;;;;13.28;70.51;154771.75;4985128;28;20481;-78
2023/05/19 09:37:39;;;;;;;4.93;4.00;;;;;;;13.30;70.95;154775.63;5016295;28;20815;-75
2023/05/19 09:40:08;;;;;;;6.77;4.47;;;;;;;13.34;72.17;154787.28;4984182;28;20464;-78
2023/05/19 09:42:37;;;;;;;4.83;4.33;;;;;;;13.39;70.64;154800.31;5004299;28;20468;-78
2023/05/19 09:45:06;;;;;;;7.30;4.70;;;;;;;13.43;70.06;154810.66;5006687;28;20831;-77
2023/05/19 09:47:34;;;;;;;7.50;4.57;;;;;;;13.44;70.26;154811.97;4971134;28;20559;-77
2023/05/19 09:50:01;;;;;;;6.00;4.37;;;;;;;13.41;69.53;154805.50;5006215;28;20457;-77
2023/05/19 09:52:28;;;;;;;9.10;5.73;;;;;;;13.51;70.92;154830.13;4997995;28;20452;-77
2023/05/19 09:54:54;;;;;;;7.27;4.20;;;;;;;13.55;70.81;154840.53;4996755;28;20475;-77
2023/05/19 09:57:25;;;;;;;6.60;4.87;;;;;;;13.63;70.48;154860.00;4997809;28;20457;-77
2023/05/19 09:59:55;;;;;;;7.80;4.53;;;;;;;13.66;69.59;154867.78;5004362;28;20439;-78
2023/05/19 10:02:24;;;;;;;5.40;4.33;;;;;;;13.61;68.66;154854.81;4992870;28;20881;-78
2023/05/19 10:04:52;;;;;;;5.83;4.47;;;;;;;13.57;69.15;154844.41;5018181;28;20441;-78
2023/05/19 10:07:19;;;;;;;5.50;4.10;;;;;;;13.62;68.84;154858.69;5011145;28;20488;-78
2023/05/19 10:09:48;;;;;;;6.10;4.80;;;;;;;13.60;68.78;154853.50;4996295;28;20467;-78
2023/05/19 10:12:15;;;;;;;4.63;4.20;;;;;;;13.51;69.02;154828.81;5005965;28;21086;-78
2023/05/19 10:14:42;;;;;;;4.23;3.83;;;;;;;13.40;69.28;154802.88;5008891;28;20476;-76
2023/05/19 10:17:11;;;;;;;5.40;4.37;;;;;;;13.33;70.15;154784.72;4985250;28;20456;-76
2023/05/19 10:19:38;;;;;;;8.50;5.00;;;;;;;13.42;70.01;154808.06;4990635;28;20974;-78
2023/05/19 10:22:05;;;;;;;4.77;3.93;;;;;;;13.41;70.11;154804.19;4996733;28;20464;-78
2023/05/19 10:24:31;;;;;;;6.07;4.03;;;;;;;13.51;70.17;154830.13;4989264;28;20867;-78
2023/05/19 10:27:02;;;;;;;5.33;4.07;;;;;;;13.54;69.54;154836.63;5003059;28;20468;-78
2023/05/19 10:29:30;;;;;;;5.10;4.20;;;;;;;13.58;69.37;154847.03;5011113;28;20533;-78
2023/05/19 10:32:00;;;;;;;4.70;4.03;;;;;;;13.51;68.99;154828.81;5009851;28;20455;-78
2023/05/19 10:34:49;;;;;;;5.47;4.10;;;;;;;13.57;68.80;154845.72;4990263;28;20493;-78
2023/05/19 10:37:23;;;;;;;4.60;3.60;;;;;;;13.54;68.07;154837.91;5001276;28;20468;-78
2023/05/19 10:39:51;;;;;;;5.57;4.10;;;;;;;13.51;68.62;154828.81;4999666;28;20819;-78
2023/05/19 10:42:25;;;;;;;8.07;4.43;;;;;;;13.57;69.10;154845.72;5000325;28;20538;-78
2023/05/19 10:44:58;;;;;;;8.03;4.57;;;;;;;13.56;67.88;154843.09;4994664;28;20466;-78
2023/05/19 10:47:25;;;;;;;4.27;3.87;;;;;;;13.63;68.23;154860.00;5007852;28;20433;-78
2023/05/19 10:49:54;;;;;;;5.27;4.20;;;;;;;13.68;68.93;154874.28;4998284;28;20903;-78
2023/05/19 10:52:22;;;;;;;7.90;5.00;;;;;;;13.70;68.13;154878.16;4995853;28;20495;-78
2023/05/19 10:54:48;;;;;;;6.17;4.10;;;;;;;13.70;67.88;154878.16;4997703;28;20873;-78
2023/05/19 10:57:16;;;;;;;7.93;4.07;;;;;;;13.68;67.96;154874.28;5011775;28;20445;-78
2023/05/19 10:59:43;;;;;;;5.63;4.23;;;;;;;13.69;68.64;154875.53;5013762;28;20873;-78
2023/05/19 11:02:10;;;;;;;4.93;3.70;;;;;;;13.70;68.87;154878.16;5013339;28;20932;-78
2023/05/19 11:04:45;;;;;;;7.57;4.60;;;;;;;13.70;69.02;154879.47;5016161;28;20436;-78
2023/05/19 11:07:17;;;;;;;5.60;4.53;;;;;;;13.70;69.02;154878.16;5012652;28;20766;-78
2023/05/19 11:09:44;;;;;;;6.90;5.20;;;;;;;13.79;68.63;154902.78;4994705;28;20544;-78
2023/05/19 11:12:10;;;;;;;5.33;4.20;;;;;;;13.85;68.36;154918.38;4983310;28;20484;-78
2023/05/19 11:14:38;;;;;;;5.57;4.30;;;;;;;13.88;68.69;154926.19;5005221;28;20483;-76
2023/05/19 11:17:12;;;;;;;4.33;3.93;;;;;;;13.89;67.97;154927.50;5003257;28;20449;-76
2023/05/19 11:19:40;;;;;;;5.97;4.10;;;;;;;13.85;68.15;154917.06;5004795;28;20444;-76
2023/05/19 11:22:11;;;;;;;6.83;4.43;;;;;;;13.79;68.56;154902.78;4994047;28;20479;-86
2023/05/19 11:24:44;;;;;;;6.20;4.67;;;;;;;13.90;68.71;154930.06;5012979;28;20438;-86
2023/05/19 11:27:21;;;;;;;4.73;4.27;;;;;;;13.89;68.54;154927.50;4992529;28;21157;-87
2023/05/19 11:29:48;;;;;;;7.93;4.43;;;;;;;13.82;68.40;154910.59;4987386;28;20552;-86
2023/05/19 11:32:15;;;;;;;5.70;4.60;;;;;;;13.92;67.61;154935.28;5006195;28;20815;-86